Time;durP1;ratioP1;P1;durP2;ratioP2;P2;SDS_P1;SDS_P2;PMS_P1;PMS_P2;Temp;Humidity;BMP_temperature;BMP_pressure;BME280_temperature;BME280_humidity;BME280_pressure;Samples;Min_cycle;Max_cycle;Signal;HPM_P1;HPM_P2
2022/09/05 00:02:01;;;;;;;1.23;0.45;;;17.50;99.90;;;;;;5085283;28;20031;-84
2022/09/05 00:04:46;;;;;;;1.40;0.50;;;17.50;99.90;;;;;;5072534;28;20033;-84
2022/09/05 00:07:18;;;;;;;2.97;0.50;;;17.50;99.90;;;;;;5090064;28;20014;-84
2022/09/05 00:09:43;;;;;;;1.38;0.70;;;17.40;99.90;;;;;;5090549;28;20391;-83
2022/09/05 00:12:10;;;;;;;1.83;0.70;;;17.40;99.90;;;;;;5070623;28;20084;-84
2022/09/05 00:14:41;;;;;;;1.00;0.50;;;17.40;99.90;;;;;;5088672;28;20123;-85
2022/09/05 00:17:07;;;;;;;1.87;0.63;;;17.40;99.90;;;;;;5092190;28;20031;-83
2022/09/05 00:19:54;;;;;;;3.35;0.77;;;17.40;99.90;;;;;;5080714;28;20028;-83
2022/09/05 00:22:29;;;;;;;4.05;0.40;;;17.30;99.90;;;;;;5074080;28;20051;-84
2022/09/05 00:24:54;;;;;;;1.48;0.63;;;17.30;99.90;;;;;;5086124;28;20027;-85
2022/09/05 00:27:56;;;;;;;1.40;0.70;;;17.30;99.90;;;;;;5077731;28;20167;-84
2022/09/05 00:30:21;;;;;;;1.42;0.57;;;17.30;99.90;;;;;;5048307;28;20082;-83
2022/09/05 00:33:15;;;;;;;1.30;0.40;;;17.30;99.90;;;;;;5079759;28;20291;-84
2022/09/05 00:36:19;;;;;;;1.63;0.57;;;17.30;99.90;;;;;;5080723;28;20451;-83
2022/09/05 00:38:56;;;;;;;1.90;0.60;;;17.20;99.90;;;;;;5077302;28;20412;-83
2022/09/05 00:41:22;;;;;;;1.42;0.40;;;17.20;99.90;;;;;;5078174;28;20077;-86
2022/09/05 00:43:50;;;;;;;2.63;0.63;;;17.20;99.90;;;;;;5080421;28;20081;-84
2022/09/05 00:46:22;;;;;;;1.70;0.52;;;17.20;99.90;;;;;;5073009;28;20016;-84
2022/09/05 00:49:18;;;;;;;1.45;0.52;;;17.20;99.90;;;;;;5087061;28;20484;-83
2022/09/05 00:51:53;;;;;;;1.13;0.40;;;17.20;99.90;;;;;;5089312;28;20047;-84
2022/09/05 00:54:37;;;;;;;1.83;0.65;;;17.20;99.90;;;;;;5081650;28;20392;-83
2022/09/05 00:57:21;;;;;;;1.70;0.77;;;17.20;99.90;;;;;;5066079;28;20024;-84
2022/09/05 01:00:08;;;;;;;1.10;0.55;;;17.20;99.90;;;;;;5076430;28;20017;-83
2022/09/05 01:02:44;;;;;;;1.17;0.50;;;17.20;99.90;;;;;;5078230;28;20372;-84
2022/09/05 01:05:22;;;;;;;1.13;0.52;;;17.10;99.90;;;;;;5078186;28;20016;-84
2022/09/05 01:08:05;;;;;;;2.38;0.80;;;17.10;99.90;;;;;;5080825;28;20115;-84
2022/09/05 01:10:45;;;;;;;2.85;0.60;;;17.10;99.90;;;;;;5069000;28;20431;-84
2022/09/05 01:13:16;;;;;;;1.10;0.50;;;17.00;99.90;;;;;;5071111;28;20111;-84
2022/09/05 01:16:14;;;;;;;1.45;0.60;;;17.00;99.90;;;;;;5081588;28;20031;-83
2022/09/05 01:18:52;;;;;;;2.05;0.60;;;17.00;99.90;;;;;;5046364;28;20496;-84
2022/09/05 01:21:37;;;;;;;1.58;0.57;;;17.00;99.90;;;;;;5079716;28;20381;-83
2022/09/05 01:24:36;;;;;;;1.10;0.43;;;16.90;99.90;;;;;;5078973;28;20496;-84
2022/09/05 01:27:39;;;;;;;1.42;0.47;;;16.90;99.90;;;;;;5080116;28;20029;-83
2022/09/05 01:30:12;;;;;;;1.05;0.50;;;16.90;99.90;;;;;;5075802;28;20013;-84
2022/09/05 01:33:16;;;;;;;1.10;0.65;;;16.90;99.90;;;;;;5095735;28;20093;-84
2022/09/05 01:36:20;;;;;;;2.45;0.70;;;16.90;99.90;;;;;;5030356;28;20121;-84
2022/09/05 01:38:57;;;;;;;1.50;0.73;;;16.90;99.90;;;;;;5047649;28;20037;-84
2022/09/05 01:42:00;;;;;;;1.30;0.60;;;16.90;99.90;;;;;;5078713;28;20036;-84
2022/09/05 01:44:50;;;;;;;1.23;0.47;;;16.90;99.90;;;;;;5073370;28;20024;-84
2022/09/05 01:47:48;;;;;;;1.52;0.65;;;16.90;99.90;;;;;;5077470;28;20016;-84
2022/09/05 01:50:34;;;;;;;1.75;0.80;;;16.90;99.90;;;;;;5059030;28;20044;-84
2022/09/05 01:53:11;;;;;;;1.55;0.63;;;16.80;99.90;;;;;;5070140;28;20032;-83
2022/09/05 01:55:40;;;;;;;2.00;0.70;;;16.90;99.90;;;;;;5080808;28;20443;-84
2022/09/05 01:58:11;;;;;;;2.33;0.70;;;16.80;99.90;;;;;;5084048;28;20069;-83
2022/09/05 02:00:39;;;;;;;2.58;0.70;;;16.80;99.90;;;;;;5080904;28;20067;-83
2022/09/05 02:03:20;;;;;;;1.77;0.70;;;16.80;99.90;;;;;;5094504;28;20096;-84
2022/09/05 02:05:55;;;;;;;1.83;0.80;;;16.80;99.90;;;;;;5077843;28;20033;-84
2022/09/05 02:09:06;;;;;;;2.33;0.70;;;16.70;99.90;;;;;;5078486;28;20034;-83
2022/09/05 02:12:01;;;;;;;1.60;0.73;;;16.70;99.90;;;;;;5054695;28;20032;-84
2022/09/05 02:14:30;;;;;;;1.70;0.60;;;16.70;99.90;;;;;;5058757;28;20059;-84
2022/09/05 02:17:08;;;;;;;1.90;0.50;;;16.60;99.90;;;;;;5078176;28;20028;-84
2022/09/05 02:19:45;;;;;;;2.15;0.70;;;16.60;99.90;;;;;;5077000;28;20059;-84
2022/09/05 02:22:17;;;;;;;1.73;0.75;;;16.60;99.90;;;;;;5077404;28;20013;-83
2022/09/05 02:24:52;;;;;;;1.35;0.70;;;16.60;99.90;;;;;;5074127;28;20051;-83
2022/09/05 02:27:27;;;;;;;1.77;0.68;;;16.50;99.90;;;;;;5071127;28;20461;-84
2022/09/05 02:29:55;;;;;;;1.92;0.88;;;16.50;99.90;;;;;;5092959;28;20024;-83
2022/09/05 02:32:49;;;;;;;1.73;0.85;;;16.50;99.90;;;;;;5084779;28;20111;-83
2022/09/05 02:35:18;;;;;;;2.42;0.82;;;16.50;99.90;;;;;;5090875;28;20087;-84
2022/09/05 02:37:53;;;;;;;2.60;0.90;;;16.50;99.90;;;;;;5097940;28;20028;-84
2022/09/05 02:40:35;;;;;;;1.90;0.80;;;16.50;99.90;;;;;;5085415;28;20031;-84
2022/09/05 02:43:25;;;;;;;1.33;0.57;;;16.40;99.90;;;;;;5088305;28;20752;-84
2022/09/05 02:46:11;;;;;;;2.28;0.90;;;16.40;99.90;;;;;;5079628;28;20031;-84
2022/09/05 02:48:56;;;;;;;1.70;0.80;;;16.40;99.90;;;;;;5088422;28;20093;-84
2022/09/05 02:51:36;;;;;;;2.17;0.90;;;16.40;99.90;;;;;;5082735;28;20037;-83
2022/09/05 02:54:07;;;;;;;1.65;0.80;;;16.50;99.90;;;;;;5102084;28;20052;-83
2022/09/05 02:56:51;;;;;;;3.08;1.10;;;16.40;99.90;;;;;;5094409;28;20045;-83
2022/09/05 02:59:30;;;;;;;1.55;0.73;;;16.30;99.90;;;;;;5083561;28;20032;-84
2022/09/05 03:02:11;;;;;;;2.22;0.70;;;16.30;99.90;;;;;;5073895;28;20012;-84
2022/09/05 03:04:50;;;;;;;1.25;0.63;;;16.30;99.90;;;;;;5080576;28;20471;-85
2022/09/05 03:07:49;;;;;;;2.47;0.70;;;16.30;99.90;;;;;;5076824;28;20012;-84
2022/09/05 03:10:20;;;;;;;3.00;0.73;;;16.30;99.90;;;;;;5075891;28;20461;-84
2022/09/05 03:13:07;;;;;;;1.55;0.75;;;16.20;99.90;;;;;;5083440;28;20024;-84
2022/09/05 03:16:10;;;;;;;1.95;0.77;;;16.30;99.90;;;;;;5088901;28;20472;-84
2022/09/05 03:18:54;;;;;;;1.63;0.60;;;16.20;99.90;;;;;;5076768;28;20060;-84
2022/09/05 03:21:37;;;;;;;1.20;0.63;;;16.20;99.90;;;;;;5080583;28;20016;-85
2022/09/05 03:24:09;;;;;;;1.70;0.80;;;16.20;99.90;;;;;;5087861;28;20055;-83
2022/09/05 03:26:41;;;;;;;;;;;16.20;99.90;;;;;;5078115;28;20028;-83
2022/09/05 03:29:15;;;;;;;2.22;0.85;;;16.20;99.90;;;;;;5070340;28;19904;-85
2022/09/05 03:31:49;;;;;;;1.85;0.70;;;16.10;99.90;;;;;;5083202;28;20545;-83
2022/09/05 03:35:00;;;;;;;2.58;0.95;;;16.10;99.90;;;;;;5069289;28;20370;-84
2022/09/05 03:37:35;;;;;;;2.60;0.70;;;16.10;99.90;;;;;;5088134;28;20039;-84
2022/09/05 03:40:09;;;;;;;3.95;0.98;;;16.10;99.90;;;;;;5082298;28;20028;-84
2022/09/05 03:42:54;;;;;;;1.60;0.68;;;16.00;99.90;;;;;;5078143;28;20390;-84
2022/09/05 03:45:32;;;;;;;2.50;1.00;;;16.10;99.90;;;;;;5074331;28;20019;-84
2022/09/05 03:48:03;;;;;;;2.63;0.70;;;16.10;99.90;;;;;;5082430;28;20462;-83
2022/09/05 03:50:58;;;;;;;1.58;0.77;;;16.10;99.90;;;;;;5076441;28;20035;-83
2022/09/05 03:54:02;;;;;;;2.53;1.00;;;16.00;99.90;;;;;;5061584;28;20036;-84
2022/09/05 03:56:45;;;;;;;2.08;0.57;;;16.00;99.90;;;;;;5054254;28;20101;-84
2022/09/05 03:59:31;;;;;;;1.65;0.82;;;16.00;99.90;;;;;;5076651;28;20032;-84
2022/09/05 04:02:03;;;;;;;2.15;0.70;;;16.00;99.90;;;;;;5054016;28;20039;-84
2022/09/05 04:04:45;;;;;;;2.25;0.80;;;16.10;99.90;;;;;;5084526;28;20032;-82
2022/09/05 04:07:20;;;;;;;3.30;1.00;;;16.00;99.90;;;;;;5086614;28;20020;-82
2022/09/05 04:10:01;;;;;;;2.20;0.90;;;16.00;99.90;;;;;;5083232;28;20055;-84
2022/09/05 04:12:48;;;;;;;1.42;0.70;;;16.00;99.90;;;;;;5087218;28;20025;-83
2022/09/05 04:15:31;;;;;;;1.75;0.70;;;16.00;99.90;;;;;;5076299;28;20052;-84
2022/09/05 04:18:21;;;;;;;1.25;0.52;;;16.00;99.90;;;;;;5071583;28;20101;-83
2022/09/05 04:20:59;;;;;;;1.52;0.73;;;16.00;99.90;;;;;;5081120;28;20500;-84
2022/09/05 04:23:44;;;;;;;1.88;0.80;;;16.00;99.90;;;;;;5073458;28;20031;-84
2022/09/05 04:26:18;;;;;;;1.63;0.80;;;16.00;99.90;;;;;;5071308;28;20063;-84
2022/09/05 04:29:02;;;;;;;2.85;1.23;;;15.90;99.90;;;;;;5074554;28;20119;-84
2022/09/05 04:31:46;;;;;;;4.22;0.90;;;15.90;99.90;;;;;;5088595;28;20036;-84
2022/09/05 04:34:33;;;;;;;3.35;1.02;;;16.30;99.90;;;;;;5074368;28;20043;-84
2022/09/05 04:37:06;;;;;;;2.58;1.17;;;16.00;99.90;;;;;;5071643;28;20058;-84
2022/09/05 04:39:33;;;;;;;2.88;1.17;;;16.00;99.90;;;;;;5084767;28;20035;-83
2022/09/05 04:42:04;;;;;;;2.35;1.10;;;15.90;99.90;;;;;;5074458;28;20392;-84
2022/09/05 04:44:39;;;;;;;2.28;0.98;;;15.90;99.90;;;;;;5082493;28;20081;-84
2022/09/05 04:47:28;;;;;;;3.40;1.13;;;15.90;99.90;;;;;;5082505;28;20052;-84
2022/09/05 04:50:04;;;;;;;1.77;0.95;;;15.90;99.90;;;;;;5081891;28;20622;-83
2022/09/05 04:52:39;;;;;;;2.67;1.02;;;15.90;99.90;;;;;;5076784;28;20548;-84
2022/09/05 04:55:19;;;;;;;3.35;1.17;;;15.90;99.90;;;;;;5070177;28;20509;-84
2022/09/05 04:58:05;;;;;;;6.00;1.45;;;15.90;99.90;;;;;;5076083;28;20016;-83
2022/09/05 05:00:50;;;;;;;2.28;1.10;;;15.90;99.90;;;;;;5067613;28;20092;-84
2022/09/05 05:03:22;;;;;;;2.00;0.95;;;15.90;99.90;;;;;;5076232;28;20545;-84
2022/09/05 05:05:48;;;;;;;1.55;0.77;;;15.90;99.90;;;;;;5082072;28;20087;-83
2022/09/05 05:08:27;;;;;;;2.42;1.00;;;15.90;99.90;;;;;;5063180;28;20449;-83
2022/09/05 05:11:07;;;;;;;3.00;0.90;;;15.90;99.90;;;;;;5069895;28;20035;-84
2022/09/05 05:13:47;;;;;;;3.42;0.93;;;15.80;99.90;;;;;;5072235;28;20028;-83
2022/09/05 05:16:23;;;;;;;2.38;1.00;;;15.80;99.90;;;;;;5084546;22;20040;-84
2022/09/05 05:19:18;;;;;;;2.63;1.10;;;15.80;99.90;;;;;;5071056;28;20040;-83
2022/09/05 05:21:53;;;;;;;2.30;1.05;;;15.90;99.90;;;;;;5070369;28;20237;-84
2022/09/05 05:24:32;;;;;;;2.03;0.77;;;15.90;99.90;;;;;;5071558;28;20052;-83
2022/09/05 05:27:24;;;;;;;2.40;1.08;;;16.00;99.90;;;;;;5083236;28;20110;-83
2022/09/05 05:30:10;;;;;;;2.75;1.25;;;16.00;99.90;;;;;;5088816;28;20039;-83
2022/09/05 05:32:41;;;;;;;2.28;1.00;;;16.00;99.90;;;;;;5079228;28;20426;-84
2022/09/05 05:35:10;;;;;;;3.83;1.30;;;16.00;99.90;;;;;;5088062;28;20065;-83
2022/09/05 05:38:09;;;;;;;3.92;1.08;;;16.00;99.90;;;;;;5099875;28;20404;-84
2022/09/05 05:40:42;;;;;;;2.28;1.17;;;16.00;99.90;;;;;;5099904;28;20407;-83
2022/09/05 05:43:33;;;;;;;2.80;0.90;;;16.10;99.90;;;;;;5100315;28;20031;-83
2022/09/05 05:46:00;;;;;;;2.45;1.10;;;16.20;99.90;;;;;;5098418;28;20017;-84
2022/09/05 05:48:39;;;;;;;4.28;1.23;;;16.20;99.90;;;;;;5102251;28;20101;-84
2022/09/05 05:51:23;;;;;;;3.13;1.20;;;16.30;99.90;;;;;;5094319;28;20024;-84
2022/09/05 05:53:52;;;;;;;2.58;1.08;;;16.40;99.90;;;;;;5100569;28;20088;-84
2022/09/05 05:56:39;;;;;;;3.35;1.10;;;16.40;99.90;;;;;;5096801;28;20020;-84
2022/09/05 05:59:36;;;;;;;2.58;1.02;;;16.50;99.90;;;;;;5091400;28;20085;-84
2022/09/05 06:02:24;;;;;;;1.95;0.93;;;16.50;99.90;;;;;;5100932;28;20036;-84
2022/09/05 06:05:27;;;;;;;3.75;1.20;;;16.60;99.90;;;;;;5103192;28;20028;-84
2022/09/05 06:08:20;;;;;;;2.83;0.95;;;16.50;99.90;;;;;;5098822;28;20012;-83
2022/09/05 06:11:11;;;;;;;2.92;0.98;;;16.00;99.90;;;;;;5100520;28;20109;-84
2022/09/05 06:13:59;;;;;;;2.38;1.30;;;15.90;99.90;;;;;;5092026;28;20431;-84
2022/09/05 06:17:09;;;;;;;2.47;1.13;;;16.00;99.90;;;;;;5091808;28;20085;-84
2022/09/05 06:20:00;;;;;;;2.80;1.23;;;16.10;99.90;;;;;;5079481;28;20515;-84
2022/09/05 06:22:43;;;;;;;2.53;1.20;;;16.00;99.90;;;;;;5095679;28;20024;-84
2022/09/05 06:25:28;;;;;;;2.40;0.95;;;16.10;99.90;;;;;;5088879;28;20008;-84
2022/09/05 06:28:14;;;;;;;2.47;1.02;;;16.20;99.90;;;;;;5087734;28;20016;-84
2022/09/05 06:31:00;;;;;;;4.00;1.20;;;16.20;99.90;;;;;;5061333;28;20029;-84
2022/09/05 06:33:37;;;;;;;2.60;1.25;;;16.40;99.90;;;;;;5096228;28;20024;-84
2022/09/05 06:36:31;;;;;;;2.60;1.13;;;16.50;99.90;;;;;;5084676;28;20046;-84
2022/09/05 06:39:04;;;;;;;2.30;1.00;;;16.70;99.90;;;;;;5095676;28;20024;-84
2022/09/05 06:41:56;;;;;;;2.83;1.23;;;17.00;99.90;;;;;;5093645;28;20034;-84
2022/09/05 06:44:35;;;;;;;;;;;17.10;99.90;;;;;;5086257;28;20031;-84
2022/09/05 06:47:05;;;;;;;2.80;0.98;;;17.20;99.90;;;;;;5082657;28;20244;-84
2022/09/05 06:50:10;;;;;;;1.63;0.77;;;17.40;99.90;;;;;;5093802;28;20070;-84
2022/09/05 06:53:17;;;;;;;2.28;1.00;;;17.50;99.90;;;;;;5091512;28;20365;-84
2022/09/05 06:56:00;;;;;;;2.25;0.98;;;17.70;99.90;;;;;;5093066;28;20035;-84
2022/09/05 06:59:03;;;;;;;2.60;1.10;;;17.80;99.90;;;;;;5087489;28;20036;-83
2022/09/05 07:01:33;;;;;;;2.47;0.98;;;17.90;99.90;;;;;;5088701;28;20496;-84
2022/09/05 07:04:30;;;;;;;4.43;1.20;;;17.80;99.90;;;;;;5086721;28;20026;-84
2022/09/05 07:07:25;;;;;;;2.95;1.10;;;17.80;99.90;;;;;;5095385;28;20027;-84
2022/09/05 07:10:02;;;;;;;2.80;1.15;;;17.90;99.90;;;;;;5087221;28;20012;-84
2022/09/05 07:12:33;;;;;;;3.67;1.20;;;17.90;99.90;;;;;;5091447;28;20040;-84
2022/09/05 07:15:23;;;;;;;5.32;1.25;;;18.10;99.90;;;;;;5089998;28;20016;-84
2022/09/05 07:18:15;;;;;;;2.03;0.75;;;18.30;99.90;;;;;;5091816;28;20032;-84
2022/09/05 07:20:54;;;;;;;3.13;0.93;;;18.50;99.90;;;;;;5088991;28;20504;-84
2022/09/05 07:23:33;;;;;;;5.75;1.02;;;18.70;99.90;;;;;;5086440;28;20287;-84
2022/09/05 07:25:59;;;;;;;2.40;0.90;;;18.60;99.90;;;;;;5084745;28;20023;-84
2022/09/05 07:28:26;;;;;;;2.92;1.02;;;18.70;99.90;;;;;;5081206;28;20415;-84
2022/09/05 07:31:00;;;;;;;4.22;1.17;;;18.60;99.90;;;;;;5083153;28;20036;-84
2022/09/05 07:33:30;;;;;;;2.60;0.90;;;18.80;99.90;;;;;;5092864;28;20024;-84
2022/09/05 07:36:10;;;;;;;1.40;0.70;;;18.70;99.90;;;;;;5088654;28;20036;-84
2022/09/05 07:38:38;;;;;;;2.85;0.90;;;19.00;99.90;;;;;;5086534;28;20520;-84
2022/09/05 07:41:26;;;;;;;3.55;1.00;;;19.10;99.90;;;;;;5084476;28;20063;-84
2022/09/05 07:44:07;;;;;;;1.80;1.00;;;19.10;99.90;;;;;;5092360;28;20020;-84
2022/09/05 07:46:37;;;;;;;3.40;1.00;;;19.20;99.90;;;;;;5083899;28;20090;-83
2022/09/05 07:49:17;;;;;;;2.58;0.90;;;19.40;99.90;;;;;;5091697;28;20024;-83
2022/09/05 07:51:56;;;;;;;2.65;1.10;;;19.40;99.90;;;;;;5088401;28;20500;-83
2022/09/05 07:54:29;;;;;;;2.05;0.73;;;19.60;99.90;;;;;;5090546;28;20480;-83
2022/09/05 07:57:04;;;;;;;3.22;0.93;;;19.70;99.90;;;;;;5083193;28;20095;-84
2022/09/05 07:59:36;;;;;;;4.15;1.45;;;19.80;99.90;;;;;;5090844;28;20024;-83
2022/09/05 08:02:02;;;;;;;;;;;19.90;99.90;;;;;;5086678;28;20028;-84
2022/09/05 08:04:39;;;;;;;2.20;0.82;;;20.20;99.90;;;;;;5090514;28;19915;-84
2022/09/05 08:07:23;;;;;;;1.80;0.70;;;20.40;99.90;;;;;;5083560;28;20107;-84
2022/09/05 08:09:53;;;;;;;1.63;0.70;;;20.70;99.90;;;;;;5089973;28;20032;-84
2022/09/05 08:12:25;;;;;;;4.47;1.08;;;20.80;99.90;;;;;;5081752;28;20448;-84
2022/09/05 08:15:07;;;;;;;;;;;20.90;99.90;;;;;;5092276;28;20015;-84
2022/09/05 08:17:40;;;;;;;1.27;0.60;;;21.00;99.90;;;;;;5089670;28;20288;-84
2022/09/05 08:20:19;;;;;;;1.38;0.70;;;21.10;99.90;;;;;;5085927;28;20020;-84
2022/09/05 08:22:47;;;;;;;1.25;0.60;;;21.40;99.90;;;;;;5089376;28;20032;-84
2022/09/05 08:25:20;;;;;;;5.60;0.70;;;21.40;99.90;;;;;;5085574;28;20035;-84
2022/09/05 08:27:53;;;;;;;3.38;1.10;;;21.60;99.90;;;;;;5090508;28;20626;-84
2022/09/05 08:30:23;;;;;;;3.67;1.80;;;21.60;99.90;;;;;;5078304;28;20012;-84
2022/09/05 08:33:01;;;;;;;3.83;1.10;;;21.50;99.90;;;;;;5091550;28;20484;-84
2022/09/05 08:35:39;;;;;;;3.83;1.60;;;21.60;99.90;;;;;;5089978;28;20451;-84
2022/09/05 08:38:07;;;;;;;2.20;1.08;;;21.80;99.90;;;;;;5084534;28;20028;-84
2022/09/05 08:40:40;;;;;;;2.50;0.88;;;22.00;99.90;;;;;;5094211;28;20028;-84
2022/09/05 08:43:28;;;;;;;2.50;0.95;;;22.30;99.90;;;;;;5095636;28;20016;-84
2022/09/05 08:45:59;;;;;;;1.77;0.82;;;22.40;99.90;;;;;;5080772;28;20016;-84
2022/09/05 08:48:55;;;;;;;2.28;0.80;;;22.60;99.90;;;;;;5089606;28;20024;-84
2022/09/05 08:51:50;;;;;;;2.63;1.15;;;22.70;99.90;;;;;;5089056;28;20095;-84
2022/09/05 08:54:38;;;;;;;2.22;1.05;;;22.90;99.90;;;;;;5085962;28;20023;-84
2022/09/05 08:57:23;;;;;;;1.45;0.52;;;23.10;99.90;;;;;;5099345;28;20024;-85
2022/09/05 09:00:07;;;;;;;2.05;0.75;;;23.20;99.90;;;;;;5086204;28;20031;-84
2022/09/05 09:03:00;;;;;;;1.65;0.70;;;23.40;99.90;;;;;;5087193;28;20505;-84
2022/09/05 09:05:53;;;;;;;1.35;0.70;;;23.40;99.90;;;;;;5087760;28;20029;-85
2022/09/05 09:08:31;;;;;;;2.13;0.63;;;23.60;99.90;;;;;;5086553;28;20065;-84
2022/09/05 09:11:09;;;;;;;1.70;0.68;;;23.60;99.90;;;;;;5089183;28;20103;-85
2022/09/05 09:14:15;;;;;;;1.38;0.45;;;23.70;99.90;;;;;;5087415;28;20113;-84
2022/09/05 09:16:43;;;;;;;2.47;0.80;;;23.80;99.90;;;;;;5088017;28;20032;-84
2022/09/05 09:19:32;;;;;;;2.13;0.75;;;23.90;99.90;;;;;;5089017;28;20038;-85
2022/09/05 09:22:41;;;;;;;2.10;0.70;;;23.80;99.90;;;;;;5085474;28;20050;-85
2022/09/05 09:25:12;;;;;;;1.20;0.57;;;24.10;99.90;;;;;;5086640;28;20013;-84
2022/09/05 09:28:12;;;;;;;1.50;0.85;;;24.20;99.90;;;;;;5089202;28;20032;-84
2022/09/05 09:30:43;;;;;;;1.45;0.60;;;24.20;99.90;;;;;;5088647;28;20032;-84
2022/09/05 09:33:18;;;;;;;1.35;0.40;;;24.40;99.90;;;;;;5085629;28;20020;-85
2022/09/05 09:35:52;;;;;;;1.23;0.70;;;24.50;99.90;;;;;;5086694;28;20496;-85
2022/09/05 09:38:51;;;;;;;1.20;0.57;;;24.60;99.90;;;;;;5088151;28;20032;-84
2022/09/05 09:41:26;;;;;;;1.98;0.60;;;24.70;99.90;;;;;;5085514;28;20028;-85
2022/09/05 09:44:21;;;;;;;1.50;0.55;;;24.90;99.90;;;;;;5089310;28;20541;-84
2022/09/05 09:46:49;;;;;;;1.08;0.50;;;24.70;99.90;;;;;;5084722;28;20020;-84
2022/09/05 09:49:26;;;;;;;1.85;0.57;;;24.90;99.90;;;;;;5091389;28;20501;-84
2022/09/05 09:51:52;;;;;;;1.95;0.70;;;25.00;99.90;;;;;;5083765;28;20024;-84
2022/09/05 09:54:54;;;;;;;1.85;0.57;;;25.10;99.90;;;;;;5090328;28;20494;-84
2022/09/05 09:57:43;;;;;;;1.00;0.40;;;25.10;99.90;;;;;;5087689;28;20105;-85
2022/09/05 10:00:20;;;;;;;2.55;0.82;;;25.10;99.90;;;;;;5080684;28;20020;-85
2022/09/05 10:03:18;;;;;;;1.73;0.55;;;25.10;99.90;;;;;;5081899;28;20048;-85
2022/09/05 10:06:17;;;;;;;0.90;0.50;;;24.90;99.90;;;;;;5079925;28;20023;-85
2022/09/05 10:09:25;;;;;;;1.83;0.60;;;25.10;99.90;;;;;;5088976;28;20020;-85
2022/09/05 10:12:00;;;;;;;1.33;0.55;;;25.10;99.90;;;;;;5084482;28;20126;-85
2022/09/05 10:14:44;;;;;;;0.95;0.50;;;25.30;99.90;;;;;;5090678;28;20020;-86
2022/09/05 10:17:45;;;;;;;1.30;0.60;;;25.40;99.90;;;;;;5086432;28;20413;-84
2022/09/05 10:20:19;;;;;;;1.83;0.70;;;25.40;99.90;;;;;;5080973;28;20091;-85
2022/09/05 10:23:20;;;;;;;1.65;0.50;;;25.60;99.90;;;;;;5087758;28;20060;-85
2022/09/05 10:26:06;;;;;;;1.05;0.50;;;25.70;99.90;;;;;;5077226;28;20456;-85
2022/09/05 10:29:10;;;;;;;2.28;0.60;;;25.90;99.90;;;;;;5086093;28;20016;-84
2022/09/05 10:32:04;;;;;;;2.05;0.57;;;26.20;99.90;;;;;;5086401;28;20023;-85
2022/09/05 10:34:45;;;;;;;1.80;0.60;;;26.50;99.90;;;;;;5090838;28;20030;-85
2022/09/05 10:37:13;;;;;;;1.23;0.50;;;26.80;99.30;;;;;;5083986;28;20384;-84
2022/09/05 10:39:42;;;;;;;1.30;0.70;;;27.00;98.90;;;;;;5087198;28;20057;-84
2022/09/05 10:42:33;;;;;;;2.25;0.50;;;27.10;99.20;;;;;;5088828;28;20032;-85
2022/09/05 10:45:03;;;;;;;1.45;0.50;;;27.20;98.60;;;;;;5104632;28;20020;-84
2022/09/05 10:47:48;;;;;;;1.00;0.50;;;27.40;98.50;;;;;;5090811;28;20032;-84
2022/09/05 10:50:32;;;;;;;1.45;0.60;;;27.60;97.70;;;;;;5088359;28;20020;-84
2022/09/05 10:53:20;;;;;;;1.40;0.55;;;27.80;97.60;;;;;;5107851;28;20054;-84
2022/09/05 10:56:16;;;;;;;1.80;0.55;;;27.80;97.10;;;;;;5088203;28;20064;-84
2022/09/05 10:59:00;;;;;;;1.00;0.50;;;27.90;97.50;;;;;;5092843;28;20050;-84
2022/09/05 11:01:58;;;;;;;0.88;0.50;;;28.00;97.00;;;;;;5089019;28;20024;-84
2022/09/05 11:04:32;;;;;;;0.90;0.30;;;28.10;96.40;;;;;;5083838;28;20021;-85
2022/09/05 11:07:14;;;;;;;1.15;0.40;;;28.10;95.60;;;;;;5086021;28;20479;-84
2022/09/05 11:09:42;;;;;;;1.67;0.52;;;28.20;94.30;;;;;;5092416;28;20020;-85
2022/09/05 11:12:46;;;;;;;0.85;0.40;;;28.10;93.60;;;;;;5093583;28;20455;-84
2022/09/05 11:17:47;;;;;;;3.90;0.50;;;28.10;93.70;;;;;;5087136;22;20052;-86
2022/09/05 11:20:53;;;;;;;0.77;0.35;;;28.30;93.60;;;;;;5068374;28;20313;-86
2022/09/05 11:23:20;;;;;;;0.65;0.30;;;28.60;93.90;;;;;;5053978;28;20021;-86
2022/09/05 11:25:54;;;;;;;0.50;0.30;;;28.90;94.00;;;;;;5050714;28;20033;-86
2022/09/05 11:28:37;;;;;;;1.08;0.40;;;28.90;92.70;;;;;;5047772;28;20074;-86
2022/09/05 11:31:13;;;;;;;0.93;0.50;;;29.10;91.20;;;;;;5050747;28;20025;-86
2022/09/05 11:34:01;;;;;;;0.85;0.40;;;29.20;92.20;;;;;;5039909;28;20051;-86
2022/09/05 11:36:58;;;;;;;1.75;0.60;;;28.70;92.30;;;;;;5047827;28;20025;-87
2022/09/05 11:40:10;;;;;;;1.25;0.55;;;28.90;93.80;;;;;;5052602;28;20103;-86
2022/09/05 11:42:55;;;;;;;1.48;0.60;;;29.20;91.70;;;;;;5051734;28;20025;-86
2022/09/05 11:45:35;;;;;;;1.02;0.60;;;29.40;91.80;;;;;;5041312;28;20025;-86
2022/09/05 11:48:23;;;;;;;0.73;0.38;;;29.70;90.90;;;;;;5050675;28;20009;-87
2022/09/05 11:51:14;;;;;;;1.50;0.40;;;30.10;90.50;;;;;;5048135;28;20100;-86
2022/09/05 11:54:00;;;;;;;1.30;0.30;;;30.20;90.20;;;;;;5040280;28;20409;-86
2022/09/05 11:56:47;;;;;;;1.17;0.40;;;30.40;89.10;;;;;;5047331;28;20041;-86
2022/09/05 11:59:40;;;;;;;0.60;0.30;;;30.60;88.00;;;;;;5042628;28;20025;-86
2022/09/05 12:02:14;;;;;;;1.17;0.32;;;30.70;87.90;;;;;;5041031;28;20079;-87
2022/09/05 12:04:53;;;;;;;1.13;0.40;;;30.50;88.20;;;;;;5045046;28;20055;-87
2022/09/05 12:07:58;;;;;;;0.98;0.38;;;30.70;84.60;;;;;;5042889;28;20047;-86
2022/09/05 12:10:37;;;;;;;0.47;0.30;;;30.40;84.70;;;;;;5037374;28;20066;-86
2022/09/05 12:13:14;;;;;;;1.13;0.45;;;29.40;87.40;;;;;;5048920;28;20099;-86
2022/09/05 12:15:44;;;;;;;0.80;0.47;;;29.40;88.00;;;;;;5047236;28;20025;-86
2022/09/05 12:18:42;;;;;;;1.30;0.45;;;29.80;87.80;;;;;;5049909;28;20576;-86
2022/09/05 12:21:23;;;;;;;1.05;0.50;;;29.80;86.30;;;;;;5048555;28;20090;-86
2022/09/05 12:23:49;;;;;;;0.80;0.35;;;29.60;89.30;;;;;;5055794;28;20041;-85
2022/09/05 12:26:32;;;;;;;0.88;0.40;;;30.30;84.60;;;;;;5051820;28;20059;-86
2022/09/05 12:29:02;;;;;;;1.00;0.50;;;30.20;83.50;;;;;;5028616;28;20489;-86
2022/09/05 12:31:49;;;;;;;2.22;0.50;;;29.70;82.60;;;;;;5051068;28;20064;-86
2022/09/05 12:34:34;;;;;;;0.80;0.40;;;28.80;85.40;;;;;;5031043;28;20027;-85
2022/09/05 12:37:02;;;;;;;0.77;0.40;;;28.40;86.30;;;;;;5051330;28;20017;-86
2022/09/05 12:39:42;;;;;;;1.00;0.32;;;28.00;88.60;;;;;;5030648;28;20045;-86
2022/09/05 12:42:18;;;;;;;1.52;0.70;;;27.90;89.10;;;;;;5046754;28;20095;-86
2022/09/05 12:45:19;;;;;;;1.58;0.50;;;27.70;90.60;;;;;;5052032;28;20562;-86
2022/09/05 12:48:16;;;;;;;0.80;0.40;;;27.70;90.00;;;;;;5029254;28;20501;-86
2022/09/05 12:50:56;;;;;;;1.88;0.50;;;28.20;87.00;;;;;;5033730;28;20033;-86
2022/09/05 12:53:23;;;;;;;1.08;0.43;;;28.80;86.80;;;;;;5047362;28;20020;-86
2022/09/05 12:56:00;;;;;;;1.88;0.40;;;29.50;86.90;;;;;;5050595;28;20032;-87
2022/09/05 12:58:28;;;;;;;1.05;0.40;;;30.10;87.90;;;;;;5054003;28;20036;-86
2022/09/05 13:01:15;;;;;;;0.98;0.43;;;30.10;85.30;;;;;;5024812;28;20517;-86
2022/09/05 13:03:51;;;;;;;0.63;0.40;;;30.40;84.10;;;;;;5037696;28;20025;-86
2022/09/05 13:06:40;;;;;;;1.08;0.50;;;30.40;83.80;;;;;;5031317;28;20487;-86
2022/09/05 13:09:12;;;;;;;2.65;0.57;;;30.80;83.70;;;;;;5041536;28;20024;-86
2022/09/05 13:12:08;;;;;;;0.57;0.40;;;30.50;82.70;;;;;;5051283;28;20070;-86
2022/09/05 13:14:56;;;;;;;0.77;0.40;;;30.60;82.70;;;;;;5032673;28;20033;-86
2022/09/05 13:17:40;;;;;;;0.98;0.40;;;30.40;82.90;;;;;;5029463;28;20029;-86
2022/09/05 13:20:35;;;;;;;0.82;0.47;;;30.20;85.70;;;;;;5046517;28;20029;-86
2022/09/05 13:23:24;;;;;;;1.27;0.50;;;30.50;83.60;;;;;;5021138;28;20025;-86
2022/09/05 13:26:09;;;;;;;0.55;0.30;;;30.80;83.50;;;;;;5043984;28;20665;-85
2022/09/05 13:28:55;;;;;;;1.23;0.47;;;30.90;82.30;;;;;;5053514;28;20055;-87
2022/09/05 13:31:42;;;;;;;0.57;0.38;;;31.00;82.00;;;;;;5039888;28;20020;-86
2022/09/05 13:34:18;;;;;;;1.55;0.60;;;31.40;80.20;;;;;;5028251;28;20029;-86
2022/09/05 13:36:50;;;;;;;1.00;0.50;;;31.50;80.30;;;;;;5056951;28;20032;-87
2022/09/05 13:39:21;;;;;;;0.73;0.40;;;31.90;82.00;;;;;;5028734;28;20508;-87
2022/09/05 13:41:51;;;;;;;1.08;0.40;;;32.30;79.30;;;;;;5051648;28;20021;-86
2022/09/05 13:44:21;;;;;;;1.00;0.50;;;32.50;78.10;;;;;;5031402;28;20378;-86
2022/09/05 13:47:01;;;;;;;1.67;0.40;;;31.80;77.90;;;;;;5022890;28;20486;-86
2022/09/05 13:49:35;;;;;;;0.93;0.43;;;32.10;80.10;;;;;;5051875;28;20403;-86
2022/09/05 13:52:23;;;;;;;1.02;0.43;;;32.20;77.70;;;;;;5042003;28;20028;-86
2022/09/05 13:55:28;;;;;;;0.65;0.40;;;32.10;77.70;;;;;;5052353;28;20016;-87
2022/09/05 13:58:06;;;;;;;1.15;0.70;;;31.60;76.80;;;;;;5026792;28;20052;-86
2022/09/05 14:00:33;;;;;;;1.70;0.73;;;31.80;78.60;;;;;;5037588;28;20025;-86
2022/09/05 14:03:27;;;;;;;0.90;0.40;;;32.30;77.50;;;;;;5038386;28;20389;-86
2022/09/05 14:06:12;;;;;;;1.48;0.45;;;32.80;78.10;;;;;;5058304;28;20055;-87
2022/09/05 14:09:15;;;;;;;0.93;0.45;;;32.90;77.80;;;;;;5051005;28;20025;-87